Sign in

Links

Info

Aviation weather - KDAB

METAR KDAB 170053Z 00000KT 10SM FEW030 FEW130 FEW250 26/24 A3006 RMK AO2 SLP178 T02610244

TAF KDAB 162325Z 1700/1724 21003KT P6SM BKN120 FM171400 24004KT P6SM FEW030 SCT250 FM171800 10008KT P6SM VCTS SCT030CB BKN100 FM172200 16005KT P6SM SCT030 BKN120

Aviation weather from ADDS. Re-check weather before flight.

-